Time;durP1;ratioP1;P1;durP2;ratioP2;P2;SDS_P1;SDS_P2;PMS_P1;PMS_P2;Temp;Humidity;BMP_temperature;BMP_pressure;BME280_temperature;BME280_humidity;BME280_pressure;Samples;Min_cycle;Max_cycle;Signal;HPM_P1;HPM_P2
2021/08/05 00:03:02;;;;;;;22.10;10.93;;;;;;;19.33;71.21;100696.08;1696858;84;21347;-58
2021/08/05 00:06:08;;;;;;;18.90;11.28;;;;;;;19.28;71.43;100700.09;1696786;84;21394;-59
2021/08/05 00:09:16;;;;;;;15.72;9.75;;;;;;;19.23;71.73;100699.32;1696854;84;21213;-59
2021/08/05 00:12:23;;;;;;;16.23;8.68;;;;;;;19.23;71.93;100695.16;1651912;86;21251;-59
2021/08/05 00:15:28;;;;;;;21.65;8.40;;;;;;;19.19;71.93;100689.75;1696910;84;21522;-58
2021/08/05 00:18:36;;;;;;;21.48;9.25;;;;;;;19.15;72.03;100691.26;1653698;86;21209;-58
2021/08/05 00:21:42;;;;;;;14.75;7.53;;;;;;;19.11;72.34;100701.13;1698078;84;21449;-58
2021/08/05 00:24:48;;;;;;;14.38;7.42;;;;;;;19.08;72.47;100705.73;1699432;84;21241;-58
2021/08/05 00:27:56;;;;;;;13.43;7.08;;;;;;;19.04;72.67;100697.52;1682827;84;21367;-58
2021/08/05 00:31:02;;;;;;;15.43;7.97;;;;;;;19.01;72.99;100700.75;1696705;84;21383;-58
2021/08/05 00:34:08;;;;;;;18.48;7.37;;;;;;;18.98;73.31;100702.59;1690731;84;21252;-58
2021/08/05 00:37:15;;;;;;;11.10;7.70;;;;;;;18.98;73.48;100699.81;1693523;84;21233;-59
2021/08/05 00:40:21;;;;;;;16.15;7.28;;;;;;;18.94;73.54;100705.50;1649403;87;21438;-58
2021/08/05 00:43:29;;;;;;;10.30;7.00;;;;;;;18.90;73.55;100702.84;1642365;87;21396;-58
2021/08/05 00:46:38;;;;;;;13.08;7.47;;;;;;;18.84;73.60;100692.64;1642293;87;21231;-59
2021/08/05 00:49:44;;;;;;;14.18;8.03;;;;;;;18.78;73.69;100691.28;1642323;86;21250;-58
2021/08/05 00:52:51;;;;;;;18.02;8.83;;;;;;;18.70;74.11;100685.47;1642210;87;21883;-57
2021/08/05 00:55:56;;;;;;;21.27;9.75;;;;;;;18.65;74.63;100674.17;1642295;87;21470;-57
2021/08/05 00:59:01;;;;;;;20.60;9.30;;;;;;;18.64;74.93;100668.33;1642315;87;21227;-58
2021/08/05 01:02:19;;;;;;;20.27;8.25;;;;;;;18.65;75.21;100670.02;1642256;87;21389;-59
2021/08/05 01:05:26;;;;;;;29.80;9.63;;;;;;;18.66;75.39;100666.16;1642180;87;21317;-58
2021/08/05 01:08:33;;;;;;;15.32;8.58;;;;;;;18.64;75.25;100668.85;1642198;87;21215;-59
2021/08/05 01:11:46;;;;;;;20.95;9.10;;;;;;;18.62;74.95;100668.21;1632348;87;21381;-58
2021/08/05 01:14:56;;;;;;;16.42;8.20;;;;;;;18.61;75.00;100668.77;1642230;87;21357;-58
2021/08/05 01:18:19;;;;;;;18.02;8.75;;;;;;;18.62;75.16;100664.91;1642127;87;21226;-59
2021/08/05 01:21:35;;;;;;;17.12;8.53;;;;;;;18.64;75.06;100662.78;1642174;87;21259;-58
2021/08/05 01:24:45;;;;;;;17.10;9.10;;;;;;;18.61;74.77;100654.91;1642275;87;21287;-59
2021/08/05 01:27:52;;;;;;;18.60;9.45;;;;;;;18.61;74.93;100656.30;1642276;87;21378;-58
2021/08/05 01:30:59;;;;;;;17.60;9.45;;;;;;;18.60;74.88;100658.73;1642236;87;21380;-58
2021/08/05 01:34:04;;;;;;;18.95;8.43;;;;;;;18.60;74.83;100657.34;1645008;84;21376;-58
2021/08/05 01:37:15;;;;;;;17.30;7.87;;;;;;;18.58;74.68;100660.89;1651144;87;21294;-58
2021/08/05 01:40:21;;;;;;;17.20;9.28;;;;;;;18.60;74.66;100664.84;1648420;86;21290;-58
2021/08/05 01:43:27;;;;;;;11.75;8.20;;;;;;;18.60;74.76;100660.12;1644266;87;21218;-57
2021/08/05 01:46:33;;;;;;;12.95;9.60;;;;;;;18.59;74.88;100652.88;1663524;86;21313;-57
2021/08/05 01:49:40;;;;;;;14.45;9.23;;;;;;;18.60;74.85;100648.20;1652337;86;21250;-58
2021/08/05 01:52:45;;;;;;;14.93;9.60;;;;;;;18.61;74.85;100651.27;1651058;87;21388;-58
2021/08/05 01:55:56;;;;;;;15.80;8.58;;;;;;;18.61;74.78;100639.66;1651988;85;21802;-58
2021/08/05 01:59:01;;;;;;;14.93;8.30;;;;;;;18.62;74.77;100647.41;1651019;87;21238;-58
2021/08/05 02:02:08;;;;;;;14.07;9.53;;;;;;;18.65;74.60;100644.19;1650983;87;21266;-59
2021/08/05 02:05:22;;;;;;;17.20;9.83;;;;;;;18.63;74.52;100645.80;1651068;87;21780;-58
2021/08/05 02:08:23;;;;;;;16.62;9.75;;;;;;;18.62;74.57;100644.64;1650982;87;21302;-58
2021/08/05 02:11:33;;;;;;;22.25;10.43;;;;;;;18.62;74.54;100639.09;1630339;87;21242;-58
2021/08/05 02:14:43;;;;;;;27.02;12.53;;;;;;;18.63;74.54;100640.26;1663476;86;21309;-58
2021/08/05 02:17:50;;;;;;;18.30;10.85;;;;;;;18.60;74.44;100639.32;1650580;84;21384;-57
2021/08/05 02:20:58;;;;;;;18.92;11.12;;;;;;;18.63;74.51;100641.64;1649349;85;21250;-57
2021/08/05 02:24:06;;;;;;;17.67;10.38;;;;;;;18.64;74.46;100639.73;1652489;85;21866;-59
2021/08/05 02:27:14;;;;;;;17.30;10.88;;;;;;;18.60;74.14;100642.65;1655681;85;21388;-58
2021/08/05 02:30:19;;;;;;;15.43;11.03;;;;;;;18.50;74.01;100632.56;1678559;84;21697;-57
2021/08/05 02:33:25;;;;;;;16.00;10.93;;;;;;;18.39;74.12;100636.03;1678506;85;21349;-58
2021/08/05 02:36:30;;;;;;;20.27;10.90;;;;;;;18.34;74.28;100638.05;1678543;82;21235;-57
2021/08/05 02:39:37;;;;;;;19.80;11.55;;;;;;;18.32;74.39;100631.86;1663367;86;21358;-58
2021/08/05 02:42:44;;;;;;;19.27;11.53;;;;;;;18.29;74.33;100639.76;1663820;85;21394;-56
2021/08/05 02:45:53;;;;;;;16.87;10.23;;;;;;;18.28;74.54;100634.77;1663643;85;21243;-58
2021/08/05 02:49:00;;;;;;;22.52;11.60;;;;;;;18.27;74.55;100637.20;1642181;86;21219;-58
2021/08/05 02:52:07;;;;;;;20.17;11.63;;;;;;;18.27;74.60;100638.59;1691629;84;21249;-58
2021/08/05 02:55:15;;;;;;;18.23;11.93;;;;;;;18.33;74.65;100639.66;1691498;85;21830;-57
2021/08/05 02:58:20;;;;;;;17.85;12.50;;;;;;;18.40;74.56;100641.88;1691414;85;21290;-58
2021/08/05 03:01:30;;;;;;;18.02;11.55;;;;;;;18.48;74.52;100648.55;1665943;86;21481;-58
2021/08/05 03:04:41;;;;;;;17.77;11.38;;;;;;;18.58;74.39;100650.33;1664359;85;21369;-59
2021/08/05 03:07:46;;;;;;;21.55;11.85;;;;;;;18.69;74.12;100650.49;1664009;85;21776;-60
2021/08/05 03:10:51;;;;;;;18.37;11.05;;;;;;;18.80;74.02;100655.33;1664465;85;21449;-60
2021/08/05 03:13:59;;;;;;;16.97;11.05;;;;;;;18.90;73.87;100648.73;1676146;84;21386;-60
2021/08/05 03:17:07;;;;;;;20.77;13.08;;;;;;;19.00;73.74;100651.89;1614570;89;21291;-59
2021/08/05 03:20:16;;;;;;;20.72;13.48;;;;;;;19.07;73.81;100651.31;1615070;88;21267;-60
2021/08/05 03:23:22;;;;;;;19.77;12.53;;;;;;;19.18;73.77;100649.20;1671992;85;21203;-60
2021/08/05 03:26:27;;;;;;;28.42;14.30;;;;;;;19.27;73.82;100646.45;1678420;85;21309;-60
2021/08/05 03:29:36;;;;;;;22.85;14.68;;;;;;;19.34;73.71;100648.66;1678457;85;21874;-59
2021/08/05 03:32:44;;;;;;;22.48;16.23;;;;;;;19.37;73.60;100643.20;1678444;85;21226;-60
2021/08/05 03:35:50;;;;;;;26.30;18.87;;;;;;;19.44;73.45;100643.15;1678374;85;21468;-60
2021/08/05 03:38:56;;;;;;;25.77;19.20;;;;;;;19.53;73.25;100639.00;1686114;85;21196;-60
2021/08/05 03:42:03;;;;;;;28.85;19.55;;;;;;;19.61;72.65;100642.88;1661596;85;21745;-60
2021/08/05 03:45:08;;;;;;;26.48;19.73;;;;;;;19.67;72.11;100634.48;1685842;84;21254;-59
2021/08/05 03:48:14;;;;;;;24.27;17.80;;;;;;;19.76;71.80;100633.63;1686040;84;21308;-61
2021/08/05 03:51:21;;;;;;;27.27;19.67;;;;;;;19.80;71.34;100629.33;1685773;85;21228;-58
2021/08/05 03:54:29;;;;;;;28.92;20.65;;;;;;;19.83;71.00;100628.88;1686304;84;21220;-60
2021/08/05 03:57:36;;;;;;;29.20;22.40;;;;;;;19.84;70.95;100627.78;1685926;85;21276;-59
2021/08/05 04:00:44;;;;;;;29.25;22.00;;;;;;;19.88;70.85;100631.28;1678659;85;21367;-58
2021/08/05 04:03:51;;;;;;;36.73;24.65;;;;;;;19.94;70.74;100625.33;1680861;85;21896;-61
2021/08/05 04:07:01;;;;;;;31.37;23.62;;;;;;;20.04;70.70;100629.82;1683339;84;21256;-61
2021/08/05 04:10:10;;;;;;;35.73;26.20;;;;;;;20.19;70.79;100620.57;1628804;87;21818;-60
2021/08/05 04:13:18;;;;;;;39.67;28.17;;;;;;;20.35;70.60;100618.02;1621352;87;21218;-59
2021/08/05 04:16:22;;;;;;;38.50;27.62;;;;;;;20.54;70.45;100623.00;1626680;87;21205;-60
2021/08/05 04:19:28;;;;;;;41.18;27.42;;;;;;;20.70;70.33;100621.83;1622004;88;21758;-59
2021/08/05 04:22:32;;;;;;;40.90;29.77;;;;;;;20.86;69.78;100621.70;1625950;87;21233;-61
2021/08/05 04:25:38;;;;;;;36.40;28.62;;;;;;;21.01;69.27;100612.95;1633654;87;21241;-61
2021/08/05 04:28:44;;;;;;;44.03;29.90;;;;;;;21.19;68.73;100619.27;1631869;87;21246;-60
2021/08/05 04:31:49;;;;;;;46.55;33.70;;;;;;;21.40;67.84;100625.67;1621812;87;21394;-61
2021/08/05 04:34:55;;;;;;;44.55;32.50;;;;;;;21.63;66.09;100622.89;1631558;86;21237;-61
2021/08/05 04:38:07;;;;;;;51.77;40.80;;;;;;;21.89;65.14;100622.45;1645777;83;21253;-61
2021/08/05 04:41:12;;;;;;;60.78;46.68;;;;;;;22.15;64.01;100620.52;1665954;85;21221;-61
2021/08/05 04:44:16;;;;;;;64.47;50.17;;;;;;;22.42;63.05;100615.23;1667368;86;21253;-61
2021/08/05 04:47:21;;;;;;;64.45;50.38;;;;;;;22.64;61.88;100629.41;1667345;86;21312;-59
2021/08/05 04:50:27;;;;;;;61.68;50.08;;;;;;;22.78;60.90;100621.89;1667504;86;21272;-60
2021/08/05 04:53:31;;;;;;;65.57;47.25;;;;;;;22.87;60.75;100622.31;1670035;86;21739;-61
2021/08/05 04:56:41;;;;;;;56.15;43.25;;;;;;;22.91;60.35;100617.94;1667778;86;21328;-61
2021/08/05 04:59:48;;;;;;;49.18;39.58;;;;;;;22.93;60.12;100608.20;1667849;86;21356;-58
2021/08/05 05:02:55;;;;;;;46.50;36.63;;;;;;;22.93;59.85;100617.16;1667548;86;21233;-62
2021/08/05 05:06:02;;;;;;;44.50;34.80;;;;;;;22.88;59.85;100613.69;1646992;86;21294;-61
2021/08/05 05:09:09;;;;;;;44.25;33.25;;;;;;;22.84;59.82;100622.28;1665121;85;21301;-62
2021/08/05 05:12:18;;;;;;;47.75;34.33;;;;;;;22.80;59.70;100618.84;1671491;86;21870;-61
2021/08/05 05:15:24;;;;;;;42.08;31.12;;;;;;;22.80;60.06;100623.03;1659038;86;21283;-62
2021/08/05 05:18:31;;;;;;;39.05;30.08;;;;;;;22.85;60.20;100622.56;1625394;87;21388;-62
2021/08/05 05:21:39;;;;;;;36.08;26.82;;;;;;;22.91;60.62;100617.94;1688350;83;21343;-61
2021/08/05 05:24:46;;;;;;;35.00;26.33;;;;;;;22.97;60.01;100619.73;1668479;84;21855;-61
2021/08/05 05:27:52;;;;;;;31.42;24.37;;;;;;;23.05;60.24;100622.11;1668140;85;21248;-60
2021/08/05 05:30:57;;;;;;;26.52;20.70;;;;;;;23.09;59.85;100631.13;1668338;85;21230;-61
2021/08/05 05:34:04;;;;;;;25.43;17.05;;;;;;;23.09;59.17;100645.63;1664520;85;21247;-61
2021/08/05 05:37:09;;;;;;;19.02;14.55;;;;;;;23.06;58.87;100653.98;1683812;84;21734;-61
2021/08/05 05:40:17;;;;;;;21.45;14.65;;;;;;;23.03;58.62;100660.61;1684396;83;21558;-61
2021/08/05 05:43:25;;;;;;;21.37;14.13;;;;;;;22.96;59.15;100664.13;1699801;84;21785;-60
2021/08/05 05:46:32;;;;;;;20.80;14.00;;;;;;;22.90;59.98;100679.05;1699843;84;21430;-57
2021/08/05 05:49:39;;;;;;;20.20;14.70;;;;;;;22.79;61.28;100683.59;1699717;84;21885;-60
2021/08/05 05:52:47;;;;;;;21.40;15.00;;;;;;;22.63;62.33;100684.94;1699145;84;21845;-57
2021/08/05 05:55:47;;;;;;;22.93;14.30;;;;;;;22.46;63.68;100693.72;1699381;84;21390;-58
2021/08/05 05:58:52;;;;;;;23.65;15.32;;;;;;;22.34;64.84;100692.91;1699395;84;21363;-58
2021/08/05 06:02:00;;;;;;;21.15;14.87;;;;;;;22.23;65.87;100678.43;1699182;84;21773;-58
2021/08/05 06:05:07;;;;;;;25.08;17.25;;;;;;;22.13;66.98;100668.75;1717699;83;21455;-60
2021/08/05 06:08:14;;;;;;;25.35;17.85;;;;;;;22.07;68.08;100671.09;1726626;83;21336;-58
2021/08/05 06:11:19;;;;;;;26.90;19.65;;;;;;;22.02;69.16;100669.58;1724434;83;21791;-59
2021/08/05 06:14:26;;;;;;;26.52;19.20;;;;;;;22.00;69.11;100661.16;1726924;83;21193;-58
2021/08/05 06:17:32;;;;;;;24.32;18.67;;;;;;;22.02;69.47;100661.21;1728062;83;21268;-58
2021/08/05 06:20:42;;;;;;;24.65;18.57;;;;;;;22.07;70.51;100661.33;1716271;83;21749;-60
2021/08/05 06:23:47;;;;;;;26.52;18.05;;;;;;;22.14;71.15;100657.87;1702130;83;21237;-59
2021/08/05 06:26:52;;;;;;;25.32;18.98;;;;;;;22.19;71.52;100641.27;1699086;84;21414;-60
2021/08/05 06:29:58;;;;;;;22.98;16.77;;;;;;;22.26;71.78;100636.09;1705023;82;21856;-59
2021/08/05 06:33:05;;;;;;;21.50;16.12;;;;;;;22.25;71.90;100631.05;1728601;82;21261;-58
2021/08/05 06:36:14;;;;;;;27.10;17.02;;;;;;;22.22;71.88;100623.17;1712150;82;21951;-63
2021/08/05 06:39:29;;;;;;;20.15;16.93;;;;;;;22.20;72.14;100619.78;1728390;82;21304;-59
2021/08/05 06:42:35;;;;;;;23.12;16.55;;;;;;;22.17;72.55;100621.13;1720434;83;21197;-60
2021/08/05 06:45:42;;;;;;;23.45;17.37;;;;;;;22.12;72.61;100625.20;1728497;83;21931;-59
2021/08/05 06:48:52;;;;;;;24.00;17.40;;;;;;;22.08;72.91;100619.83;1728336;83;21869;-61
2021/08/05 06:51:58;;;;;;;24.72;16.93;;;;;;;22.02;73.19;100621.34;1728602;83;21936;-59
2021/08/05 06:55:04;;;;;;;26.62;17.87;;;;;;;21.98;73.79;100620.98;1728571;83;21924;-58
2021/08/05 06:58:12;;;;;;;21.75;16.32;;;;;;;21.93;73.79;100619.47;1728349;83;21197;-59
2021/08/05 07:01:17;;;;;;;26.33;17.17;;;;;;;21.91;73.79;100617.45;1710949;81;22034;-59
2021/08/05 07:04:22;;;;;;;26.10;18.32;;;;;;;21.93;73.59;100617.21;1715190;83;21355;-59
2021/08/05 07:07:30;;;;;;;25.60;17.50;;;;;;;21.97;73.91;100620.69;1698849;84;21224;-58
2021/08/05 07:10:36;;;;;;;24.60;17.65;;;;;;;22.02;73.44;100622.17;1698550;84;21221;-57
2021/08/05 07:13:42;;;;;;;23.42;17.73;;;;;;;22.12;73.28;100624.34;1698801;84;21524;-58
2021/08/05 07:16:48;;;;;;;25.52;18.85;;;;;;;22.19;73.32;100616.16;1699136;84;21397;-57
2021/08/05 07:19:55;;;;;;;26.48;18.07;;;;;;;22.32;72.90;100623.41;1699611;84;21241;-60
2021/08/05 07:23:01;;;;;;;31.60;22.58;;;;;;;22.52;72.65;100629.44;1703674;83;21774;-58
2021/08/05 07:26:07;;;;;;;27.87;21.80;;;;;;;22.77;71.89;100629.94;1699225;84;21367;-59
2021/08/05 07:29:12;;;;;;;23.85;17.62;;;;;;;23.00;71.39;100627.59;1699338;84;21228;-58
2021/08/05 07:32:18;;;;;;;26.30;19.02;;;;;;;23.23;70.93;100623.30;1699144;84;21410;-60
2021/08/05 07:35:24;;;;;;;27.10;18.65;;;;;;;23.40;70.70;100629.77;1685044;84;21216;-58
2021/08/05 07:38:29;;;;;;;24.85;18.52;;;;;;;23.52;70.24;100629.97;1699381;84;21268;-58
2021/08/05 07:41:34;;;;;;;26.52;19.70;;;;;;;23.63;70.19;100621.20;1687619;84;21443;-58
2021/08/05 07:44:47;;;;;;;30.48;19.07;;;;;;;23.76;69.88;100625.05;1697698;84;21228;-58
2021/08/05 07:47:54;;;;;;;31.23;19.05;;;;;;;23.87;69.92;100617.10;1708402;83;21542;-58
2021/08/05 07:51:00;;;;;;;28.17;19.12;;;;;;;23.98;69.25;100627.37;1730809;82;21479;-58
2021/08/05 07:54:05;;;;;;;27.35;19.77;;;;;;;24.07;68.73;100627.78;1701228;83;21210;-58
2021/08/05 07:57:10;;;;;;;29.27;19.52;;;;;;;24.06;67.50;100623.27;1712017;83;21241;-58
2021/08/05 08:00:19;;;;;;;28.85;18.25;;;;;;;24.04;67.63;100620.73;1720647;82;21687;-58
2021/08/05 08:03:24;;;;;;;27.87;19.05;;;;;;;24.17;67.95;100621.77;1698351;82;21799;-58
2021/08/05 08:06:30;;;;;;;27.52;18.85;;;;;;;24.28;68.03;100611.01;1692178;83;21246;-59
2021/08/05 08:09:35;;;;;;;30.88;19.30;;;;;;;24.42;67.60;100614.28;1691299;85;21212;-59
2021/08/05 08:12:41;;;;;;;29.85;19.57;;;;;;;24.53;66.92;100607.13;1692187;84;21371;-60
2021/08/05 08:15:48;;;;;;;29.48;19.00;;;;;;;24.69;66.67;100610.44;1706242;82;21240;-58
2021/08/05 08:18:56;;;;;;;26.82;19.57;;;;;;;24.78;66.33;100608.84;1698943;83;21217;-58
2021/08/05 08:22:01;;;;;;;31.02;18.37;;;;;;;24.90;66.34;100618.50;1691805;84;21240;-59
2021/08/05 08:25:09;;;;;;;28.02;17.80;;;;;;;25.03;66.62;100611.95;1695810;83;21762;-58
2021/08/05 08:28:17;;;;;;;26.10;17.80;;;;;;;25.17;65.75;100605.88;1710330;83;21210;-58
2021/08/05 08:31:23;;;;;;;25.72;17.98;;;;;;;25.29;65.11;100600.39;1712168;82;21256;-58
2021/08/05 08:34:32;;;;;;;28.65;18.17;;;;;;;25.44;65.13;100591.30;1712090;83;21193;-59
2021/08/05 08:37:38;;;;;;;24.80;16.95;;;;;;;25.60;64.69;100585.56;1719343;83;21729;-56
2021/08/05 08:40:53;;;;;;;27.30;16.20;;;;;;;25.80;64.43;100580.66;1719459;82;21201;-56
2021/08/05 08:44:01;;;;;;;24.05;15.70;;;;;;;25.94;64.03;100585.50;1727504;82;22050;-56
2021/08/05 08:47:09;;;;;;;23.98;14.90;;;;;;;26.16;63.16;100586.22;1723639;82;21367;-56
2021/08/05 08:50:18;;;;;;;23.50;14.30;;;;;;;26.36;62.47;100571.44;1722229;82;21372;-55
2021/08/05 08:53:27;;;;;;;24.43;14.83;;;;;;;26.57;60.85;100573.77;1725074;82;21174;-56
2021/08/05 08:56:35;;;;;;;21.82;15.68;;;;;;;26.82;60.81;100573.86;1725349;82;21292;-58
2021/08/05 08:59:45;;;;;;;25.08;15.50;;;;;;;27.10;60.04;100555.91;1729343;82;21908;-56
2021/08/05 09:03:06;;;;;;;21.05;14.80;;;;;;;27.42;59.19;100558.48;1696998;81;21197;-55
2021/08/05 09:06:17;;;;;;;17.93;14.10;;;;;;;27.80;57.80;100548.87;1720395;82;21225;-57
2021/08/05 09:09:53;;;;;;;21.48;13.68;;;;;;;28.12;56.27;100546.27;1723981;81;21730;-60
2021/08/05 09:13:09;;;;;;;20.57;14.00;;;;;;;28.39;54.87;100535.45;1706235;82;21785;-56
2021/08/05 09:16:33;;;;;;;15.45;9.78;;;;;;;28.62;53.90;100530.00;1698387;83;21245;-59
2021/08/05 09:19:47;;;;;;;7.53;6.22;;;;;;;28.90;51.98;100525.61;1711675;82;21228;-58
2021/08/05 09:22:54;;;;;;;8.93;5.72;;;;;;;29.23;48.65;100525.66;1726968;83;21375;-57
2021/08/05 09:26:01;;;;;;;8.55;5.65;;;;;;;29.60;45.06;100520.80;1705212;83;21304;-57
2021/08/05 09:29:25;;;;;;;6.65;4.75;;;;;;;29.60;45.06;100520.80;1712990;83;21209;-58
2021/08/05 09:32:35;;;;;;;5.42;4.12;;;;;;;29.68;42.94;100523.02;1709699;84;21204;-59
2021/08/05 09:35:40;;;;;;;9.35;4.90;;;;;;;29.66;41.75;100525.28;1709617;84;21271;-58
2021/08/05 09:38:48;;;;;;;6.83;4.28;;;;;;;29.64;42.00;100526.14;1720600;82;21995;-58
2021/08/05 09:42:15;;;;;;;8.70;4.17;;;;;;;29.63;41.18;100523.59;1695479;84;21244;-57
2021/08/05 09:45:21;;;;;;;6.50;4.20;;;;;;;29.63;41.18;100523.59;1674729;84;21216;-61
2021/08/05 09:48:48;;;;;;;5.78;3.80;;;;;;;29.65;40.63;100525.59;1698912;84;21753;-59
2021/08/05 09:52:03;;;;;;;5.92;3.52;;;;;;;29.85;37.86;100518.30;1660732;86;21379;-58
2021/08/05 09:55:15;;;;;;;7.30;3.87;;;;;;;29.85;37.86;100518.30;1627943;87;21726;-58
2021/08/05 09:58:20;;;;;;;6.72;4.28;;;;;;;29.98;38.25;100513.35;1636851;87;21306;-58
2021/08/05 10:01:31;;;;;;;9.13;3.62;;;;;;;30.06;39.01;100518.34;1628855;88;21267;-60
2021/08/05 10:04:45;;;;;;;7.58;4.28;;;;;;;30.06;37.57;100515.52;1645104;86;21760;-58
2021/08/05 10:08:02;;;;;;;5.25;3.98;;;;;;;30.03;38.39;100512.70;1703606;83;21555;-60
2021/08/05 10:11:08;;;;;;;5.30;3.35;;;;;;;30.03;38.82;100505.64;1727491;82;21220;-58
2021/08/05 10:14:27;;;;;;;7.10;3.77;;;;;;;30.05;39.09;100505.37;1683876;84;21280;-60
2021/08/05 10:17:35;;;;;;;7.50;3.65;;;;;;;30.07;40.06;100496.01;1653567;86;21217;-57
2021/08/05 10:20:42;;;;;;;6.80;3.87;;;;;;;30.05;39.09;100492.08;1663406;85;21405;-57
2021/08/05 10:23:50;;;;;;;5.78;3.77;;;;;;;30.02;38.98;100487.03;1663247;86;21286;-58
2021/08/05 10:26:57;;;;;;;7.10;3.70;;;;;;;30.04;39.46;100483.34;1663269;86;21389;-58
2021/08/05 10:30:05;;;;;;;6.92;3.55;;;;;;;30.07;40.00;100481.89;1638771;84;21235;-58
2021/08/05 10:33:11;;;;;;;4.80;3.05;;;;;;;30.06;38.87;100487.28;1636344;87;21243;-58
2021/08/05 10:36:18;;;;;;;5.78;3.42;;;;;;;30.03;38.16;100477.41;1683207;85;21221;-57
2021/08/05 10:39:25;;;;;;;4.90;3.05;;;;;;;29.97;37.52;100471.56;1698735;84;21336;-57
2021/08/05 10:42:33;;;;;;;4.45;2.80;;;;;;;29.91;36.83;100477.00;1722022;82;21367;-56
2021/08/05 10:45:45;;;;;;;5.17;3.10;;;;;;;29.86;37.30;100477.06;1681459;82;21745;-56
2021/08/05 10:48:51;;;;;;;4.05;2.83;;;;;;;29.77;36.09;100468.99;1639513;86;21237;-56
2021/08/05 10:51:56;;;;;;;4.87;2.80;;;;;;;29.70;35.17;100472.73;1668900;85;21258;-57
2021/08/05 10:55:02;;;;;;;3.77;2.95;;;;;;;29.63;34.94;100468.00;1668116;86;21767;-55
2021/08/05 10:58:29;;;;;;;7.97;3.55;;;;;;;29.66;35.41;100470.25;1668360;86;21792;-57
2021/08/05 11:01:52;;;;;;;4.55;3.05;;;;;;;29.78;36.05;100462.19;1667730;86;21253;-58
2021/08/05 11:04:57;;;;;;;4.55;3.15;;;;;;;29.78;36.05;100462.19;1668149;86;21719;-57
2021/08/05 11:08:18;;;;;;;4.53;3.35;;;;;;;29.88;36.69;100460.67;1663094;86;21272;-56
2021/08/05 11:11:37;;;;;;;6.72;3.80;;;;;;;29.88;36.69;100460.67;1654849;85;21794;-57
2021/08/05 11:14:46;;;;;;;4.40;3.70;;;;;;;29.92;37.86;100457.50;1682314;84;21217;-58
2021/08/05 11:18:19;;;;;;;7.37;3.87;;;;;;;29.92;37.73;100456.09;1664666;86;21219;-57
2021/08/05 11:21:31;;;;;;;5.45;3.55;;;;;;;29.96;37.27;100458.59;1666088;86;21235;-57
2021/08/05 11:25:00;;;;;;;9.03;3.72;;;;;;;30.06;37.81;100455.66;1665124;85;21246;-56
2021/08/05 11:28:35;;;;;;;5.95;3.70;;;;;;;30.21;37.83;100459.70;1668190;86;21269;-57
2021/08/05 11:31:43;;;;;;;6.47;3.33;;;;;;;30.49;37.33;100461.55;1673523;85;21227;-58
2021/08/05 11:35:06;;;;;;;5.33;3.95;;;;;;;30.81;38.08;100452.32;1661748;84;21278;-58
2021/08/05 11:38:18;;;;;;;5.20;3.42;;;;;;;31.01;36.23;100446.91;1667009;84;21205;-58
2021/08/05 11:41:27;;;;;;;5.10;3.47;;;;;;;31.13;35.37;100446.69;1665558;86;21234;-57
2021/08/05 11:44:41;;;;;;;5.60;3.67;;;;;;;31.21;35.46;100446.55;1666499;85;21222;-59
2021/08/05 11:47:51;;;;;;;6.20;3.40;;;;;;;31.27;35.54;100442.50;1684114;85;21273;-58
2021/08/05 11:50:58;;;;;;;6.33;3.70;;;;;;;31.29;35.29;100434.52;1728932;82;21434;-58
2021/08/05 11:54:05;;;;;;;6.95;3.70;;;;;;;31.23;35.19;100424.45;1725233;82;21765;-58
2021/08/05 11:57:12;;;;;;;4.95;3.85;;;;;;;31.17;35.03;100425.12;1719885;82;22255;-59
2021/08/05 12:00:24;;;;;;;5.67;3.60;;;;;;;31.14;36.61;100415.85;1716923;81;21236;-56
2021/08/05 12:03:33;;;;;;;11.03;3.83;;;;;;;31.18;36.09;100411.80;1731594;82;21412;-57
2021/08/05 12:06:40;;;;;;;8.28;4.40;;;;;;;31.21;35.75;100408.34;1728507;80;21232;-56
2021/08/05 12:09:45;;;;;;;8.40;3.92;;;;;;;31.25;36.54;100409.42;1745978;82;21217;-57
2021/08/05 12:13:03;;;;;;;7.28;3.80;;;;;;;31.26;36.45;100416.75;1679148;83;21229;-57
2021/08/05 12:16:11;;;;;;;5.12;3.87;;;;;;;31.28;36.60;100403.98;1670663;84;21438;-58
2021/08/05 12:19:17;;;;;;;8.20;4.47;;;;;;;31.29;36.83;100400.56;1738013;81;21598;-59
2021/08/05 12:22:23;;;;;;;11.53;3.72;;;;;;;31.22;36.47;100395.91;1724441;83;21216;-57
2021/08/05 12:25:46;;;;;;;9.43;3.70;;;;;;;31.14;36.01;100403.69;1723438;82;21263;-58
2021/08/05 12:28:52;;;;;;;5.45;3.60;;;;;;;31.04;35.95;100401.88;1719244;83;21798;-57
2021/08/05 12:31:58;;;;;;;7.47;3.40;;;;;;;30.93;36.05;100396.70;1665261;84;21758;-57
2021/08/05 12:35:04;;;;;;;5.03;3.70;;;;;;;30.82;36.78;100393.80;1683135;84;21239;-58
2021/08/05 12:38:18;;;;;;;5.62;3.90;;;;;;;30.71;37.92;100400.73;1701718;84;21197;-58
2021/08/05 12:41:41;;;;;;;7.08;3.95;;;;;;;30.60;38.96;100400.08;1655458;85;21303;-58
2021/08/05 12:44:50;;;;;;;5.03;3.65;;;;;;;30.52;38.52;100389.46;1631895;87;21312;-58
2021/08/05 12:47:55;;;;;;;5.97;3.77;;;;;;;30.49;37.58;100390.08;1668695;83;21317;-56
2021/08/05 12:51:02;;;;;;;6.20;3.62;;;;;;;30.48;38.36;100393.47;1651838;85;21257;-58
2021/08/05 12:54:26;;;;;;;5.78;4.03;;;;;;;30.48;39.35;100396.86;1642716;86;21657;-57
2021/08/05 12:57:31;;;;;;;5.55;3.35;;;;;;;30.45;39.15;100392.67;1636528;86;21216;-58
2021/08/05 13:00:38;;;;;;;7.60;3.83;;;;;;;30.42;38.90;100397.53;1641925;86;21918;-57
2021/08/05 13:03:54;;;;;;;7.60;4.00;;;;;;;30.39;39.21;100384.02;1674750;84;21404;-58
2021/08/05 13:07:03;;;;;;;9.48;3.85;;;;;;;30.32;38.90;100389.19;1652867;85;21649;-57
2021/08/05 13:10:16;;;;;;;8.50;6.87;;;;;;;30.20;39.02;100387.38;1652160;86;21223;-58
2021/08/05 13:13:28;;;;;;;9.60;6.20;;;;;;;30.08;39.32;100391.80;1673257;84;21227;-57
2021/08/05 13:16:44;;;;;;;9.10;5.83;;;;;;;29.98;39.75;100380.64;1651527;84;21221;-57
2021/08/05 13:20:12;;;;;;;8.70;5.40;;;;;;;29.92;40.32;100373.39;1651206;87;21194;-58
2021/08/05 13:23:33;;;;;;;8.38;4.28;;;;;;;29.81;40.72;100366.20;1661388;86;21203;-57
2021/08/05 13:26:47;;;;;;;6.42;4.05;;;;;;;29.81;40.72;100366.20;1681281;85;21551;-57
2021/08/05 13:29:54;;;;;;;9.85;4.50;;;;;;;29.79;41.20;100359.45;1675491;85;21755;-57
2021/08/05 13:33:03;;;;;;;6.83;4.25;;;;;;;29.70;41.42;100351.36;1680233;84;21737;-58
2021/08/05 13:36:09;;;;;;;9.10;4.70;;;;;;;29.70;41.42;100351.36;1656207;84;21302;-57
2021/08/05 13:39:16;;;;;;;7.62;5.58;;;;;;;29.66;41.57;100356.50;1657597;85;21398;-57
2021/08/05 13:42:23;;;;;;;9.03;6.45;;;;;;;29.62;41.99;100356.23;1660159;84;21368;-57
2021/08/05 13:45:28;;;;;;;11.08;7.53;;;;;;;29.55;42.04;100345.89;1655688;84;21279;-58
2021/08/05 13:48:35;;;;;;;14.00;9.45;;;;;;;29.50;42.62;100346.52;1650768;84;21219;-57
2021/08/05 13:51:42;;;;;;;11.45;8.30;;;;;;;29.50;42.62;100346.52;1654745;84;21274;-56
2021/08/05 13:54:48;;;;;;;12.43;7.90;;;;;;;29.44;42.26;100343.49;1664499;84;21259;-57
2021/08/05 13:57:53;;;;;;;10.10;6.45;;;;;;;29.36;42.89;100342.19;1681671;83;21259;-57
2021/08/05 14:00:59;;;;;;;11.10;5.67;;;;;;;29.27;42.97;100334.12;1670886;83;21250;-59
2021/08/05 14:04:07;;;;;;;10.13;6.20;;;;;;;29.20;43.34;100328.84;1637514;84;21230;-59
2021/08/05 14:07:16;;;;;;;8.00;5.75;;;;;;;29.14;43.64;100322.95;1653774;84;21223;-59
2021/08/05 14:10:21;;;;;;;8.80;5.97;;;;;;;29.11;44.20;100324.14;1658416;85;21255;-58
2021/08/05 14:13:28;;;;;;;12.58;5.80;;;;;;;29.11;44.22;100322.14;1653477;85;21258;-58
2021/08/05 14:16:35;;;;;;;14.75;5.22;;;;;;;29.15;44.79;100319.02;1664903;85;21368;-59
2021/08/05 14:19:40;;;;;;;9.33;5.20;;;;;;;29.22;44.55;100308.79;1663280;84;21234;-58
2021/08/05 14:22:45;;;;;;;12.40;5.10;;;;;;;29.33;44.24;100308.94;1658687;84;21214;-58
2021/08/05 14:25:53;;;;;;;9.78;5.40;;;;;;;29.35;43.65;100311.45;1651978;84;21795;-58
2021/08/05 14:28:59;;;;;;;11.70;5.95;;;;;;;29.35;43.65;100311.45;1637145;87;21243;-59